Hervé Leroux

Scout - Angers SCO
22 Feb 2028
Tuesday
Process

Personality

Adaptability (6) Ambition (2) Controversy (17) Loyalty (1) Pressure (9) Professionalism (8) Sportsmanship (18) Temperament (13)

Profile

Coaching Style Democratic
License Continental Pro
Determination 8
Man Management 4
Motivating 5
Discipline 13
Job Satisfaction
100%
Fatigue
0%
Role Scout
Wage 53.4K p/w
Contract 14.03.2030

Performance

Behaviour Good
Training Effectiveness
46%
Player Development
35%
Injury Prevention
50%
Tactical Implementation
40%

Recent Events

Attended a recruitment meeting now
Recommended a transfer target now
Recommended a transfer target now
Attended a recruitment meeting 7d ago
Recommended a transfer target 7d ago
Recommended a transfer target 7d ago
Recommended a transfer target 7d ago
Recommended a transfer target 7d ago

Currently Monitoring

171
Player Club Status Ability Confidence Watched Last Observed Latest Vote
Nathan Doualla Canon Yaounde Active 87 / 111 40% 2 11.02.2028 -
Gabe Forsyth Crawley Town Active 108 / 112 40% 1 11.02.2028 -
Andrija Bulatović RC Lens Active 134 / 132 40% 1 11.02.2028 -
Oscar Schwartau Norwich City Active 131 / 123 40% 1 09.02.2028 -
Ryan Kavuma-McQueen Accrington Stanley Active 119 / 127 40% 1 09.02.2028 -
Mamadou Camara Stade Lavallois Active 117 / 114 76% 1 24.01.2028 Approve
Natanaël Thio Stade Lavallois Lost 116 / 108 76% 1 17.01.2028 Approve
Konstantin Tyukavin Liverpool Active 132 / 133 66% 1 10.01.2028 Approve
José Paradela Tigres Negotiating 137 / 137 66% 1 01.01.2028 -
Boubacar Fofana Sochaux Lost 111 / 105 76% 1 01.01.2028 -
Lucas Camejo River Plate Active 86 / 93 40% 4 11.12.2027 -
Soriba Diaoune AC Ajaccio Active 118 / 129 40% 3 11.12.2027 -
Sunday Aniebet Enyimba Active 97 / 98 40% 2 09.12.2027 -
Shea Lacey Wolverhampton Active 136 / 146 40% 3 09.12.2027 -
Mateo Silvetti Los Angeles Football Club Active 124 / 139 40% 3 08.12.2027 -
Archie Gray Derby County Active 153 / 163 40% 2 08.12.2027 -
Lion Beqiri Falkenberg Active 100 / 99 40% 2 06.12.2027 -
Ryan McAidoo Gillingham Active 123 / 129 40% 3 06.12.2027 -
Juan Camilo Córdoba Deportivo Pereira Active 83 / 91 40% 1 06.12.2027 -
Franco Minerva Platense Active 110 / 126 40% 2 05.12.2027 -
Santino Carrizo Chacarita Juniors Active 94 / 87 40% 1 05.12.2027 -
Malick Djiguiba AS Korofina Active 89 / 105 40% 1 05.12.2027 -
Musa Malik Ikorodu City Active 88 / 81 40% 3 04.12.2027 -
Luca Williams-Barnett Tranmere Rovers Active 122 / 129 40% 1 04.12.2027 -
Estêvão Millwall Active 143 / 158 40% 5 02.12.2027 -
Oscar Otero Atletico Venezuela Active 95 / 100 40% 1 02.12.2027 -
Mateus Mané Manchester United Active 143 / 151 40% 4 01.12.2027 -
Alfie James Ventforet Kofu Active 78 / 87 40% 3 01.12.2027 -
Joel Medina Independiente Active 107 / 119 40% 2 01.12.2027 -
Tomás Aranda Boca Juniors Active 106 / 116 40% 3 27.11.2027 -
Christos Mouzakitis Hull City Active 137 / 142 40% 1 20.11.2027 -
Chimobi Igwilo Rangers International Active 82 / 113 40% 1 20.11.2027 -
Diogo Guzmán Montevideo City Torque Active 121 / 116 40% 5 18.11.2027 -
Mustapha Umar Kano Pillars Active 84 / 97 40% 2 18.11.2027 -
Gustavo Lozano Metropolitanos Active 91 / 96 40% 2 17.11.2027 -
Santiago López Independiente Active 128 / 128 40% 1 16.11.2027 -
Tiziano Cabrera Central Norte Active 92 / 95 40% 3 15.11.2027 -
Juan Rodríguez Wanderers Active 96 / 110 40% 1 15.11.2027 -
Ronan Kpakio Cardiff City Active 118 / 135 40% 1 14.11.2027 -
Luis Otávio Colorado Rapids Active 118 / 129 40% 1 11.11.2027 -
Moussa Diarra Shonan Bellmare Active 90 / 108 40% 1 11.11.2027 -
Joel Ezra Enyimba Active 102 / 86 40% 2 10.11.2027 -
Alejandro Almaraz Nueva Chicago Active 108 / 119 40% 1 09.11.2027 -
Mads Bomholt Stabaek Active 110 / 104 40% 1 08.11.2027 -
Lukas Gausdal IK Start Active 101 / 110 40% 1 08.11.2027 -
Jesús Rodríguez Como Active 148 / 157 40% 2 07.11.2027 -
Mfundo Vilakazi Kaizer Chiefs Active 110 / 134 40% 2 06.11.2027 -
Sam Amo-Ameyaw RC Strasbourg Active 126 / 137 40% 1 05.11.2027 -
Kirill Glebov CSKA Moscow Active 136 / 135 40% 1 02.11.2027 -
Nicolas Jackson Aston Villa Active 147 / 143 40% 4 05.07.2027 -
Dom Ballard Leyton Orient Active 128 / 117 40% 1 05.07.2027 -
Ricardo Pepi Chelsea Negotiating 142 / 145 93% 1 01.06.2027 Approve
Pedro de la Vega FC Dallas Active 133 / 134 66% 1 01.06.2027 Approve
Tom Fellows Southampton Active 128 / 143 40% 4 30.05.2027 -
Ali Ahmed Norwich City Active 119 / 122 40% 1 30.05.2027 -
Giacomo Raspadori Atalanta Active 149 / 141 40% 6 29.05.2027 -
Morgan Whittaker Middlesbrough Active 135 / 141 40% 2 29.05.2027 -
Mikkel Damsgaard Brentford Active 149 / 135 40% 2 28.05.2027 -
Amadou Onana Aston Villa Active 155 / 148 40% 1 28.05.2027 -
Ben Ahmed Kohili Paradou Active 101 / 93 40% 1 28.05.2027 -
Iwan Morgan Grimsby Town Active 110 / 122 40% 1 28.05.2027 -
Toni Tamarit Alverca Active 115 / 117 40% 1 26.05.2027 -
Sayed Abu Farchi Maccabi Tel Aviv Active 114 / 143 40% 1 26.05.2027 -
Tomáš Rigo Stoke City Active 134 / 128 40% 1 23.05.2027 -
Jason Knight Bristol City Active 130 / 137 40% 2 22.05.2027 -
Nicolò Cambiaghi Bologna Active 146 / 147 40% 1 22.05.2027 -
Othmane Maamma Watford Active 130 / 123 40% 4 21.05.2027 -
Stanley Mills Oxford United Active 129 / 130 40% 2 21.05.2027 -
Welington Southampton Active 129 / 137 40% 3 20.05.2027 -
Harry Clarke Preston Active 131 / 124 40% 1 20.05.2027 -
Ilay Camara Anderlecht Active 127 / 135 40% 8 19.05.2027 -
Cian Ashford Cardiff City Active 115 / 122 40% 3 19.05.2027 -
Mario Stroeykens Anderlecht Active 134 / 130 40% 8 18.05.2027 -
Assane Diao Lazio Active 148 / 144 40% 4 18.05.2027 -
Gustavo Ferreira Benfica Active 79 / 99 40% 2 18.05.2027 -
Chineme Chinonso Ikorodu City Active 84 / 91 40% 2 18.05.2027 -
Dango Ouattara Brentford Active 150 / 138 40% 2 16.05.2027 -
Kasey McAteer Ipswich Town Active 133 / 135 40% 2 16.05.2027 -
Daniel Kyerewaa Reading Active 118 / 112 40% 2 16.05.2027 -
Ilias Sebaoui Sint-Truiden Active 124 / 126 40% 6 15.05.2027 -
Erick Sánchez OGC Nice Active 146 / 143 40% 5 15.05.2027 -
Osame Sahraoui LOSC Lille Active 152 / 156 40% 8 15.05.2027 -
Serge Daura Cotonsport Garoua Active 92 / 105 40% 1 15.05.2027 -
Thibaud Verlinden OH Leuven Active 128 / 116 40% 8 13.05.2027 -
Max Bird Birmingham Active 128 / 128 40% 2 12.05.2027 -
Isaac Price West Bromwich Albion Active 124 / 126 40% 1 12.05.2027 -
Tshepang Moremi Orlando Pirates Active 115 / 122 40% 4 10.05.2027 -
Daan Heymans Racing Genk Active 123 / 126 40% 5 09.05.2027 -
Ozziel Herrera Tigres Active 129 / 146 40% 4 09.05.2027 -
Derensili Sanches Fernandes Huddersfield Town Active 124 / 130 40% 4 09.05.2027 -
Senny Mayulu Paris Saint-Germain Lost 150 / 159 40% 4 08.05.2027 -
Amine Adli Bournemouth Active 139 / 137 40% 1 08.05.2027 -
Gabriel Silva Sporting CP Active 103 / 121 40% 1 08.05.2027 -
Leo Castledine Middlesbrough Active 133 / 133 40% 1 07.05.2027 -
Ethan Williams Peterborough United Active 109 / 115 40% 1 04.05.2027 -
Jan Virgili Club Brugge Active 129 / 125 40% 5 02.05.2027 -
Callum Hudson-Odoi Nottingham Forest Active 148 / 158 40% 3 02.05.2027 -
Aimé Omgba KAA Gent Active 128 / 125 40% 3 30.04.2027 -
Adriano Bertaccini Anderlecht Active 132 / 123 40% 10 29.04.2027 -
Isaiah Jones Luton Town Active 126 / 129 40% 2 29.04.2027 -
Fletcher Holman Swindon Town Active 82 / 100 40% 1 29.04.2027 -
Lorenzo De Leo Renate Active 103 / 99 40% 1 29.04.2027 -
Hicham Mahou Moreirense Active 117 / 112 40% 1 24.04.2027 -
Kévin Danois AJ Auxerre Active 130 / 153 40% 1 24.04.2027 -
Matvii Ponomarenko Dynamo Kyiv Active 115 / 122 40% 1 24.04.2027 -
Amaury Morales Pumas UNAM Active 110 / 130 40% 1 24.04.2027 -
Georginio Rutter Brighton Active 151 / 152 40% 1 21.04.2027 -
Joaquín Panichelli Le Havre AC Active 136 / 150 40% 2 20.04.2027 -
Jeppe Erenbjerg Racing Genk Active 126 / 117 40% 4 19.04.2027 -
Jonás Luna Santa Clara Active 111 / 128 40% 1 19.04.2027 -
Stefanos Tzimas Brighton Active 130 / 137 40% 1 19.04.2027 -
Tiziano Dornell Danubio Active 118 / 108 40% 1 19.04.2027 -
William Balikwisha OH Leuven Active 117 / 117 40% 2 18.04.2027 -
Jack McGlynn Stoke City Active 131 / 131 40% 2 17.04.2027 -
Kevin Fulham Active 146 / 147 40% 1 17.04.2027 -
Kauã Elias Anderlecht Active 132 / 141 40% 1 16.04.2027 -
Dramane Kamagaté USM Alger Active 107 / 123 40% 1 16.04.2027 -
Nordan Mukiele Stade Rennais Active 96 / 103 40% 1 16.04.2027 -
Chris Lokesa Waasland-Beveren Active 123 / 130 40% 3 15.04.2027 -
Finn Azaz Southampton Active 128 / 137 40% 1 15.04.2027 -
Thomas Waddingham Portsmouth Active 104 / 116 40% 1 13.04.2027 -
Deivid Washington RC Strasbourg Active 112 / 117 40% 1 13.04.2027 -
Mats Wieffer Brighton Active 145 / 138 40% 2 12.04.2027 -
Kwadwo Baah Watford Active 125 / 130 40% 1 12.04.2027 -
Nayel Mehssatou KV Kortrijk Active 114 / 126 40% 6 10.04.2027 -
Antoine Colassin Charleroi Active 116 / 108 40% 6 10.04.2027 -
Tiago Santos LOSC Lille Active 146 / 154 40% 1 09.04.2027 -
Dylan Ourega Westerlo Active 116 / 111 40% 1 07.04.2027 -
Tristan Degreef Anderlecht Active 125 / 115 40% 2 06.04.2027 -
Luca Koleosho Paris FC Active 129 / 131 40% 1 06.04.2027 -
Sofiane Diop OGC Nice Active 153 / 133 40% 4 04.04.2027 -
Carlos Alcaraz Everton Active 141 / 134 40% 1 04.04.2027 -
Myron van Brederode KV Mechelen Active 117 / 122 40% 1 03.04.2027 -
Iker Benito Queretaro Active 129 / 137 40% 1 03.04.2027 -
Diego Lainez Tigres Active 122 / 128 40% 1 02.04.2027 -
Ryan Sessegnon Fulham Active 149 / 136 40% 1 02.04.2027 -
Félix Lemaréchal Club Brugge Active 137 / 147 40% 7 30.03.2027 -
Robert-Jan Vanwesemael Sint-Truiden Active 118 / 110 40% 2 30.03.2027 -
Pathé Mboup Stade Brestois Active 129 / 127 40% 1 24.03.2027 -
Scott Twine Bristol City Active 129 / 116 40% 1 21.03.2027 -
Kyriani Sabbe Club Brugge Active 116 / 119 40% 2 20.03.2027 -
Ruben van Bommel Ferencvaros Active 139 / 128 40% 1 31.12.2026 -
Abdelkahar Kadri KAA Gent Active 123 / 128 40% 4 30.12.2026 -
Taiga Hata Sint-Truiden Active 118 / 112 40% 4 26.12.2026 -
Nikolas Sattlberger Racing Genk Active 124 / 133 40% 2 24.12.2026 -
Jakob Napoleon Romsaas Charleroi Active 122 / 129 40% 2 20.12.2026 -
Cisse Sandra Westerlo Active 107 / 112 40% 1 20.12.2026 -
Rémi Lemoine Chamois Niortais Active 153 / 170 40% 1 15.12.2026 -
Matteo Dams Club Brugge Active 125 / 121 40% 3 12.12.2026 -
Matisse Samoise KAA Gent Active 126 / 118 40% 3 30.11.2026 -
Isa Sakamoto Westerlo Active 112 / 115 40% 1 30.11.2026 -
Freddie Potts Club Brugge Active 136 / 130 40% 5 26.11.2026 -
Ilyes Najim Waasland-Beveren Active 114 / 120 40% 1 26.11.2026 -
Mardochée Nzita Charleroi Active 117 / 115 40% 3 24.11.2026 -
Mamadou Diakhon Club Brugge Active 121 / 134 40% 2 24.11.2026 -
Ansu Fati Monaco Active 141 / 140 40% 3 23.11.2026 -
Christian Tielemans KV Oostende Active 136 / 133 40% 3 11.11.2026 -
Richard Gonzalez Chamois Niortais Active 122 / 113 40% 1 01.11.2026 -
Fredrik Hammar KV Mechelen Active 111 / 110 40% 1 27.10.2026 -
Roméo Amané Anderlecht Active 117 / 126 40% 1 21.10.2026 -
Gabriel Martinelli Brighton Active 156 / 172 40% 1 17.10.2026 -
Iliman N'Diaye Everton Active 154 / 145 40% 1 14.10.2026 -
Bill Antonio KV Mechelen Active 113 / 124 40% 1 13.10.2026 -
Yaimar Medina Racing Genk Active 118 / 115 40% 1 09.10.2026 -
Tiago Araújo KAA Gent Active 116 / 107 40% 1 26.09.2026 -
Xavi Simons Tottenham Active 148 / 144 40% 1 25.09.2026 -
Henok Teklab OH Leuven Active 113 / 105 40% 2 22.09.2026 -
Griffin Yow New England Revolution Active 129 / 126 40% 1 14.09.2026 -
Maksim Kireev KV Mechelen Active 123 / 117 40% 1 14.09.2026 -
Kevin Amaro Racing Genk Active 121 / 135 40% 1 11.09.2026 -
Siebe Van Keymolen Zulte Waregem Active 92 / 108 40% 1 01.08.2026 -